createdAt,value
2022-11-05T00:01:55.284Z,9.63
2022-11-05T00:04:40.483Z,9.35
2022-11-05T00:07:34.067Z,10.00
2022-11-05T00:10:06.317Z,10.07
2022-11-05T00:12:51.822Z,8.82
2022-11-05T00:15:37.134Z,7.57
2022-11-05T00:18:04.144Z,8.48
2022-11-05T00:20:30.869Z,9.18
2022-11-05T00:23:23.183Z,8.45
2022-11-05T00:25:57.030Z,9.73
2022-11-05T00:28:24.656Z,8.57
2022-11-05T00:30:51.837Z,8.48
2022-11-05T00:33:18.969Z,9.38
2022-11-05T00:35:45.713Z,8.57
2022-11-05T00:38:12.750Z,11.95
2022-11-05T00:40:39.513Z,12.07
2022-11-05T00:43:25.213Z,16.50
2022-11-05T00:45:51.910Z,17.42
2022-11-05T00:48:37.549Z,13.13
2022-11-05T00:51:04.273Z,15.85
2022-11-05T00:53:31.268Z,16.77
2022-11-05T00:55:58.084Z,13.25
2022-11-05T00:58:25.129Z,14.43
2022-11-05T01:00:56.300Z,14.07
2022-11-05T01:03:24.970Z,13.13
2022-11-05T01:05:54.140Z,11.15
2022-11-05T01:08:22.056Z,11.10
2022-11-05T01:10:51.363Z,14.52
2022-11-05T01:13:20.219Z,11.30
2022-11-05T01:15:47.363Z,12.27
2022-11-05T01:18:14.439Z,10.07
2022-11-05T01:20:41.257Z,12.15
2022-11-05T01:23:13.219Z,12.68
2022-11-05T01:25:41.943Z,11.90
2022-11-05T01:28:09.693Z,11.18
2022-11-05T01:30:36.797Z,12.70
2022-11-05T01:33:04.007Z,11.07
2022-11-05T01:35:30.855Z,11.73
2022-11-05T01:37:57.944Z,10.80
2022-11-05T01:40:24.894Z,10.93
2022-11-05T01:42:51.918Z,12.02
2022-11-05T01:45:21.100Z,11.27
2022-11-05T01:47:51.177Z,10.80
2022-11-05T01:50:17.857Z,10.20
2022-11-05T01:52:44.597Z,10.80
2022-11-05T01:55:11.565Z,10.70
2022-11-05T01:57:38.253Z,12.68
2022-11-05T02:00:06.053Z,13.23
2022-11-05T02:02:32.774Z,12.98
2022-11-05T02:05:03.896Z,12.70
2022-11-05T02:07:30.639Z,12.23
2022-11-05T02:10:08.721Z,11.90
2022-11-05T02:12:36.722Z,13.10
2022-11-05T02:15:03.997Z,15.43
2022-11-05T02:17:42.577Z,16.52
2022-11-05T02:20:16.405Z,17.98
2022-11-05T02:22:52.081Z,15.88
2022-11-05T02:25:39.597Z,17.52
2022-11-05T02:28:43.252Z,17.75
2022-11-05T02:31:33.645Z,19.77
2022-11-05T02:34:42.387Z,20.05
2022-11-05T02:37:09.401Z,18.00
2022-11-05T02:40:15.142Z,19.02
2022-11-05T02:42:48.234Z,19.58
2022-11-05T02:45:33.161Z,15.85
2022-11-05T02:48:25.674Z,15.48
2022-11-05T02:51:00.141Z,18.27
2022-11-05T02:53:38.745Z,17.02
2022-11-05T02:56:06.388Z,14.40
2022-11-05T02:58:33.670Z,15.38
2022-11-05T03:01:02.042Z,14.70
2022-11-05T03:03:43.663Z,15.93
2022-11-05T03:06:29.314Z,12.82
2022-11-05T03:09:18.370Z,8.40
2022-11-05T03:12:09.915Z,11.43
2022-11-05T03:14:39.973Z,11.43
2022-11-05T03:17:29.770Z,8.85
2022-11-05T03:20:26.113Z,10.70
2022-11-05T03:23:22.553Z,11.57
2022-11-05T03:25:52.230Z,7.28
2022-11-05T03:28:20.793Z,7.68
2022-11-05T03:30:47.771Z,7.18
2022-11-05T03:33:20.771Z,7.88
2022-11-05T03:35:49.934Z,4.38
2022-11-05T03:38:28.269Z,4.72
2022-11-05T03:40:56.125Z,3.60
2022-11-05T03:43:24.355Z,3.53
2022-11-05T03:45:55.017Z,4.35
2022-11-05T03:48:21.777Z,3.63
2022-11-05T03:50:55.348Z,3.63
2022-11-05T03:53:24.407Z,2.47
2022-11-05T03:55:53.847Z,3.60
2022-11-05T03:58:21.567Z,2.72
2022-11-05T04:00:49.138Z,1.90
2022-11-05T04:03:15.871Z,2.50
2022-11-05T04:05:42.874Z,1.67
2022-11-05T04:08:28.606Z,1.83
2022-11-05T04:11:14.225Z,2.88
2022-11-05T04:13:40.954Z,1.92
2022-11-05T04:16:26.503Z,3.90
2022-11-05T04:18:53.206Z,1.48
2022-11-05T04:21:38.745Z,1.02
2022-11-05T04:24:08.808Z,1.33
2022-11-05T04:26:37.501Z,1.23
2022-11-05T04:29:22.703Z,2.83
2022-11-05T04:31:49.836Z,1.73
2022-11-05T04:34:18.752Z,1.10
2022-11-05T04:36:46.343Z,0.70
2022-11-05T04:39:13.019Z,0.80
2022-11-05T04:41:40.105Z,1.38
2022-11-05T04:44:06.799Z,1.52
2022-11-05T04:46:33.885Z,0.65
2022-11-05T04:49:00.565Z,1.73
2022-11-05T04:51:27.566Z,0.85
2022-11-05T04:53:54.306Z,1.33
2022-11-05T04:56:22.585Z,1.13
2022-11-05T04:58:49.466Z,1.10
2022-11-05T05:01:20.977Z,1.25
2022-11-05T05:03:48.455Z,1.08
2022-11-05T05:06:15.877Z,1.58
2022-11-05T05:08:42.614Z,1.70
2022-11-05T05:11:11.714Z,1.23
2022-11-05T05:13:38.474Z,1.33
2022-11-05T05:16:07.241Z,1.20
2022-11-05T05:18:34.058Z,1.48
2022-11-05T05:21:19.617Z,1.25
2022-11-05T05:23:49.326Z,1.63
2022-11-05T05:26:16.530Z,1.85
2022-11-05T05:28:43.249Z,0.77
2022-11-05T05:31:10.326Z,1.15
2022-11-05T05:33:37.029Z,1.52
2022-11-05T05:36:09.989Z,1.05
2022-11-05T05:38:37.995Z,1.17
2022-11-05T05:41:05.144Z,1.88
2022-11-05T05:43:32.396Z,0.95
2022-11-05T05:46:03.846Z,0.68
2022-11-05T05:48:30.705Z,1.40
2022-11-05T05:51:02.135Z,1.15
2022-11-05T05:53:29.366Z,0.60
2022-11-05T05:55:56.572Z,0.75
2022-11-05T05:58:24.120Z,0.73
2022-11-05T06:00:51.128Z,0.80
2022-11-05T06:03:18.003Z,1.92
2022-11-05T06:05:45.182Z,3.10
2022-11-05T06:08:11.878Z,1.27
2022-11-05T06:10:39.006Z,0.73
2022-11-05T06:13:05.762Z,0.90
2022-11-05T06:15:35.817Z,1.02
2022-11-05T06:18:03.057Z,1.48
2022-11-05T06:20:30.053Z,1.33
2022-11-05T06:22:57.422Z,3.35
2022-11-05T06:25:25.029Z,1.50
2022-11-05T06:27:51.791Z,1.88
2022-11-05T06:30:18.900Z,2.45
2022-11-05T06:32:45.590Z,2.00
2022-11-05T06:35:12.614Z,1.40
2022-11-05T06:37:39.556Z,3.58
2022-11-05T06:40:07.136Z,2.42
2022-11-05T06:42:33.895Z,2.30
2022-11-05T06:45:01.018Z,2.70
2022-11-05T06:47:27.772Z,2.60
2022-11-05T06:49:56.212Z,1.77
2022-11-05T06:52:22.946Z,1.60
2022-11-05T06:54:50.187Z,2.38
2022-11-05T06:57:16.862Z,2.17
2022-11-05T06:59:43.879Z,2.58
2022-11-05T07:02:10.957Z,1.25
2022-11-05T07:04:38.116Z,1.85
2022-11-05T07:07:04.895Z,1.65
2022-11-05T07:09:31.959Z,1.70
2022-11-05T07:11:58.725Z,2.58
2022-11-05T07:14:25.707Z,1.13
2022-11-05T07:16:52.407Z,2.03
2022-11-05T07:19:19.415Z,1.70
2022-11-05T07:21:46.127Z,1.30
2022-11-05T07:24:14.431Z,2.47
2022-11-05T07:26:41.441Z,1.20
2022-11-05T07:29:08.447Z,2.35
2022-11-05T07:31:35.196Z,1.48
2022-11-05T07:34:02.391Z,1.52
2022-11-05T07:36:29.076Z,2.03
2022-11-05T07:39:00.096Z,3.03
2022-11-05T07:41:27.420Z,2.75
2022-11-05T07:43:54.459Z,3.03
2022-11-05T07:46:21.183Z,2.33
2022-11-05T07:48:48.199Z,1.33
2022-11-05T07:51:14.995Z,2.30
2022-11-05T07:53:45.326Z,0.90
2022-11-05T07:56:13.003Z,1.00
2022-11-05T07:58:39.991Z,1.90
2022-11-05T08:01:07.343Z,2.50
2022-11-05T08:03:34.704Z,2.15
2022-11-05T08:06:01.629Z,2.20
2022-11-05T08:08:28.918Z,2.50
2022-11-05T08:11:03.126Z,2.45
2022-11-05T08:13:30.135Z,1.50
2022-11-05T08:15:57.631Z,2.88
2022-11-05T08:18:31.305Z,3.95
2022-11-05T08:21:04.962Z,2.75
2022-11-05T08:23:32.340Z,2.38
2022-11-05T08:25:59.225Z,4.07
2022-11-05T08:28:26.482Z,6.35
2022-11-05T08:30:54.491Z,3.90
2022-11-05T08:33:21.599Z,2.83
2022-11-05T08:35:48.418Z,3.65
2022-11-05T08:38:17.755Z,3.60
2022-11-05T08:40:45.632Z,4.68
2022-11-05T08:43:13.898Z,3.03
2022-11-05T08:45:41.123Z,2.53
2022-11-05T08:48:09.902Z,3.58
2022-11-05T08:50:37.281Z,3.42
2022-11-05T08:53:05.144Z,3.92
2022-11-05T08:55:32.064Z,1.95
2022-11-05T08:58:00.149Z,2.15
2022-11-05T09:00:27.631Z,2.22
2022-11-05T09:02:54.683Z,3.15
2022-11-05T09:05:21.470Z,3.13
2022-11-05T09:07:48.520Z,2.55
2022-11-05T09:10:15.301Z,2.70
2022-11-05T09:12:42.370Z,2.47
2022-11-05T09:15:10.589Z,3.45
2022-11-05T09:17:37.647Z,4.05
2022-11-05T09:20:05.011Z,2.80
2022-11-05T09:22:32.247Z,2.35
2022-11-05T09:24:58.964Z,2.65
2022-11-05T09:27:26.569Z,2.88
2022-11-05T09:29:53.271Z,2.72
2022-11-05T09:32:21.026Z,3.50
2022-11-05T09:34:48.989Z,2.92
2022-11-05T09:37:16.231Z,2.25
2022-11-05T09:39:42.985Z,2.60
2022-11-05T09:42:12.060Z,2.58
2022-11-05T09:44:42.728Z,2.75
2022-11-05T09:47:15.779Z,3.30
2022-11-05T09:49:44.603Z,2.20
2022-11-05T09:52:13.904Z,3.05
2022-11-05T09:54:40.661Z,3.08
2022-11-05T09:57:11.014Z,3.30
2022-11-05T09:59:45.654Z,2.88
2022-11-05T10:02:15.748Z,2.97
2022-11-05T10:04:43.143Z,2.65
2022-11-05T10:07:13.659Z,2.42
2022-11-05T10:09:45.298Z,3.35
2022-11-05T10:12:22.351Z,2.13
2022-11-05T10:14:52.272Z,2.30
2022-11-05T10:17:24.274Z,4.18
2022-11-05T10:19:55.432Z,4.25
2022-11-05T10:22:22.437Z,2.47
2022-11-05T10:24:49.883Z,3.65
2022-11-05T10:27:21.282Z,3.15
2022-11-05T10:29:48.065Z,5.97
2022-11-05T10:32:29.257Z,5.22
2022-11-05T10:34:57.538Z,4.85
2022-11-05T10:37:24.585Z,3.80
2022-11-05T10:39:51.415Z,6.80
2022-11-05T10:42:45.448Z,3.28
2022-11-05T10:45:18.241Z,5.22
2022-11-05T10:47:45.205Z,6.18
2022-11-05T10:50:14.660Z,4.65
2022-11-05T10:53:01.466Z,4.40
2022-11-05T10:55:29.520Z,4.07
2022-11-05T10:58:28.952Z,4.47
2022-11-05T11:00:56.208Z,5.43
2022-11-05T11:03:45.141Z,5.75
2022-11-05T11:06:28.039Z,3.95
2022-11-05T11:08:59.887Z,4.57
2022-11-05T11:11:37.061Z,4.60
2022-11-05T11:14:06.568Z,4.30
2022-11-05T11:16:38.792Z,5.00
2022-11-05T11:19:21.281Z,5.75
2022-11-05T11:22:14.747Z,3.47
2022-11-05T11:24:45.427Z,4.43
2022-11-05T11:27:16.798Z,3.80
2022-11-05T11:29:49.158Z,4.65
2022-11-05T11:32:19.144Z,5.28
2022-11-05T11:34:46.830Z,5.55
2022-11-05T11:37:34.711Z,5.10
2022-11-05T11:40:13.042Z,6.85
2022-11-05T11:42:40.484Z,4.57
2022-11-05T11:45:29.016Z,5.18
2022-11-05T11:47:56.658Z,5.88
2022-11-05T11:50:43.252Z,6.40
2022-11-05T11:53:35.498Z,6.25
2022-11-05T11:56:14.632Z,6.95
2022-11-05T11:58:52.162Z,4.88
2022-11-05T12:01:51.639Z,5.05
2022-11-05T12:04:43.969Z,6.25
2022-11-05T12:07:13.866Z,5.63
2022-11-05T12:10:03.088Z,7.50
2022-11-05T12:12:46.222Z,6.07
2022-11-05T12:15:39.551Z,6.50
2022-11-05T12:18:08.279Z,5.78
2022-11-05T12:20:57.844Z,6.07
2022-11-05T12:23:46.294Z,6.25
2022-11-05T12:26:33.187Z,7.63
2022-11-05T12:29:22.290Z,5.57
2022-11-05T12:32:27.074Z,6.40
2022-11-05T12:35:18.271Z,8.13
2022-11-05T12:38:16.981Z,6.18
2022-11-05T12:40:44.242Z,7.10
2022-11-05T12:43:33.013Z,6.28
2022-11-05T12:46:03.475Z,6.57
2022-11-05T12:48:53.527Z,7.88
2022-11-05T12:51:41.798Z,8.50
2022-11-05T12:54:23.882Z,7.72
2022-11-05T12:56:54.659Z,7.75
2022-11-05T12:59:30.764Z,8.77
2022-11-05T13:02:13.948Z,10.52
2022-11-05T13:04:45.704Z,7.78
2022-11-05T13:07:15.178Z,7.40
2022-11-05T13:09:52.380Z,7.63
2022-11-05T13:12:21.796Z,8.45
2022-11-05T13:14:53.245Z,11.13
2022-11-05T13:17:25.142Z,10.57
2022-11-05T13:20:03.693Z,9.70
2022-11-05T13:22:37.235Z,9.57
2022-11-05T13:25:11.037Z,7.75
2022-11-05T13:27:51.860Z,7.47
2022-11-05T13:30:23.656Z,7.43
2022-11-05T13:32:55.737Z,7.63
2022-11-05T13:35:30.504Z,8.15
2022-11-05T13:38:18.363Z,6.40
2022-11-05T13:41:04.113Z,7.05
2022-11-05T13:43:43.432Z,7.22
2022-11-05T13:46:29.357Z,6.45
2022-11-05T13:49:25.521Z,5.40
2022-11-05T13:51:57.152Z,5.80
2022-11-05T13:54:39.105Z,8.82
2022-11-05T13:57:24.484Z,5.45
2022-11-05T13:59:57.293Z,6.78
2022-11-05T14:03:00.879Z,5.68
2022-11-05T14:05:37.080Z,6.30
2022-11-05T14:08:17.634Z,6.95
2022-11-05T14:11:05.093Z,6.97
2022-11-05T14:13:32.097Z,6.53
2022-11-05T14:16:10.425Z,5.57
2022-11-05T14:18:44.495Z,5.00
2022-11-05T14:21:26.509Z,7.53
2022-11-05T14:23:57.712Z,7.38
2022-11-05T14:26:24.554Z,7.75
2022-11-05T14:29:03.687Z,7.13
2022-11-05T14:32:07.109Z,6.07
2022-11-05T14:34:55.139Z,5.03
2022-11-05T14:37:24.304Z,9.15
2022-11-05T14:39:51.437Z,6.25
2022-11-05T14:42:30.600Z,5.85
2022-11-05T14:45:03.597Z,8.00
2022-11-05T14:47:33.127Z,6.18
2022-11-05T14:50:41.781Z,5.95
2022-11-05T14:53:44.111Z,4.60
2022-11-05T14:56:13.649Z,6.45
2022-11-05T14:58:44.257Z,4.90
2022-11-05T15:01:13.906Z,5.25
2022-11-05T15:03:45.860Z,6.82
2022-11-05T15:06:20.525Z,7.05
2022-11-05T15:08:50.520Z,5.13
2022-11-05T15:11:18.882Z,5.43
2022-11-05T15:14:00.831Z,5.35
2022-11-05T15:16:34.119Z,6.57
2022-11-05T15:19:00.802Z,7.65
2022-11-05T15:21:27.895Z,6.80
2022-11-05T15:23:56.495Z,6.32
2022-11-05T15:26:23.490Z,7.32
2022-11-05T15:28:51.765Z,8.20
2022-11-05T15:31:45.448Z,6.93
2022-11-05T15:34:21.705Z,8.00
2022-11-05T15:36:51.225Z,8.77
2022-11-05T15:39:29.459Z,8.35
2022-11-05T15:41:57.847Z,9.95
2022-11-05T15:44:26.354Z,9.10
2022-11-05T15:47:07.116Z,14.15
2022-11-05T15:49:34.355Z,10.45
2022-11-05T15:52:01.062Z,13.52
2022-11-05T15:54:30.537Z,12.35
2022-11-05T15:56:58.492Z,12.23
2022-11-05T15:59:26.504Z,12.35
2022-11-05T16:01:54.229Z,16.33
2022-11-05T16:04:23.050Z,13.98
2022-11-05T16:06:51.551Z,14.00
2022-11-05T16:09:31.964Z,13.43
2022-11-05T16:12:20.569Z,13.95
2022-11-05T16:14:57.879Z,18.13
2022-11-05T16:17:30.342Z,17.23
2022-11-05T16:19:57.519Z,14.02
2022-11-05T16:22:24.483Z,15.43
2022-11-05T16:24:51.735Z,14.40
2022-11-05T16:27:20.335Z,16.92
2022-11-05T16:29:48.565Z,14.45
2022-11-05T16:32:17.423Z,16.17
2022-11-05T16:34:52.130Z,14.52
2022-11-05T16:37:21.740Z,19.40
2022-11-05T16:39:48.723Z,16.30
2022-11-05T16:42:24.618Z,17.67
2022-11-05T16:44:52.707Z,14.23
2022-11-05T16:47:19.920Z,17.88
2022-11-05T16:49:50.121Z,15.02
2022-11-05T16:52:16.881Z,16.10
2022-11-05T16:54:43.925Z,17.02
2022-11-05T16:57:30.585Z,21.35
2022-11-05T16:59:59.091Z,15.82
2022-11-05T17:02:26.209Z,19.83
2022-11-05T17:04:53.438Z,19.23
2022-11-05T17:07:20.350Z,17.55
2022-11-05T17:09:47.373Z,17.85
2022-11-05T17:12:14.383Z,18.40
2022-11-05T17:14:41.520Z,20.73
2022-11-05T17:17:08.227Z,20.33
2022-11-05T17:19:35.208Z,20.55
2022-11-05T17:22:02.067Z,16.40
2022-11-05T17:24:29.084Z,19.42
2022-11-05T17:26:55.852Z,19.10
2022-11-05T17:29:22.967Z,21.17
2022-11-05T17:31:49.831Z,20.05
2022-11-05T17:34:17.675Z,18.05
2022-11-05T17:36:44.435Z,19.15
2022-11-05T17:39:11.571Z,17.48
2022-11-05T17:41:38.467Z,19.40
2022-11-05T17:44:05.477Z,18.17
2022-11-05T17:46:32.257Z,18.60
2022-11-05T17:48:59.293Z,18.63
2022-11-05T17:51:25.968Z,20.08
2022-11-05T17:53:53.033Z,21.52
2022-11-05T17:56:30.590Z,18.95
2022-11-05T17:59:01.461Z,22.70
2022-11-05T18:01:30.562Z,22.67
2022-11-05T18:03:57.775Z,25.30
2022-11-05T18:06:24.531Z,19.40
2022-11-05T18:08:51.519Z,25.50
2022-11-05T18:11:18.239Z,25.90
2022-11-05T18:13:45.314Z,26.13
2022-11-05T18:16:12.152Z,26.63
2022-11-05T18:18:39.203Z,27.65
2022-11-05T18:21:06.090Z,25.50
2022-11-05T18:23:33.217Z,32.30
2022-11-05T18:25:59.945Z,28.35
2022-11-05T18:28:29.945Z,29.55
2022-11-05T18:30:56.729Z,29.30
2022-11-05T18:33:24.011Z,31.60
2022-11-05T18:35:50.703Z,31.23
2022-11-05T18:38:17.719Z,32.33
2022-11-05T18:40:44.466Z,30.25
2022-11-05T18:43:11.986Z,36.05
2022-11-05T18:45:38.873Z,32.78
2022-11-05T18:48:06.188Z,34.80
2022-11-05T18:50:32.901Z,32.60
2022-11-05T18:52:59.938Z,35.75
2022-11-05T18:55:26.677Z,34.50
2022-11-05T18:57:53.753Z,35.03
2022-11-05T19:00:20.657Z,38.78
2022-11-05T19:02:47.764Z,38.53
2022-11-05T19:05:28.481Z,36.53
2022-11-05T19:07:56.734Z,36.80
2022-11-05T19:10:23.516Z,35.85
2022-11-05T19:12:50.549Z,34.38
2022-11-05T19:15:17.325Z,38.40
2022-11-05T19:17:44.422Z,35.78
2022-11-05T19:20:11.460Z,39.50
2022-11-05T19:22:38.604Z,43.55
2022-11-05T19:25:05.982Z,36.38
2022-11-05T19:27:35.041Z,40.63
2022-11-05T19:30:02.236Z,40.28
2022-11-05T19:32:29.317Z,40.65
2022-11-05T19:34:56.006Z,43.35
2022-11-05T19:37:23.017Z,45.08
2022-11-05T19:39:49.746Z,42.20
2022-11-05T19:42:16.769Z,46.00
2022-11-05T19:44:44.098Z,44.20
2022-11-05T19:47:11.152Z,45.00
2022-11-05T19:49:37.828Z,44.65
2022-11-05T19:52:04.928Z,43.50
2022-11-05T19:54:31.625Z,75.15
2022-11-05T19:56:58.804Z,212.07
2022-11-05T19:59:25.734Z,218.57
2022-11-05T20:01:52.916Z,194.55
2022-11-05T20:04:19.812Z,175.32
2022-11-05T20:06:49.485Z,161.38
2022-11-05T20:09:23.558Z,142.82
2022-11-05T20:11:51.441Z,155.55
2022-11-05T20:14:18.184Z,133.98
2022-11-05T20:16:45.820Z,129.13
2022-11-05T20:19:19.475Z,118.15
2022-11-05T20:21:46.628Z,102.82
2022-11-05T20:24:18.739Z,115.13
2022-11-05T20:26:49.256Z,108.50
2022-11-05T20:29:16.267Z,107.50
2022-11-05T20:31:43.250Z,107.25
2022-11-05T20:34:10.566Z,98.03
2022-11-05T20:36:38.314Z,110.82
2022-11-05T20:39:05.777Z,102.18
2022-11-05T20:41:33.245Z,88.90
2022-11-05T20:44:00.004Z,91.45
2022-11-05T20:46:27.162Z,99.43
2022-11-05T20:48:54.140Z,90.38
2022-11-05T20:51:22.094Z,103.82
2022-11-05T20:53:49.114Z,94.13
2022-11-05T20:56:20.293Z,88.45
2022-11-05T20:58:47.439Z,82.90
2022-11-05T21:01:16.239Z,88.53
2022-11-05T21:03:46.576Z,90.65
2022-11-05T21:06:13.778Z,80.93
2022-11-05T21:08:40.524Z,77.63
2022-11-05T21:11:07.560Z,83.05
2022-11-05T21:13:34.849Z,75.35
2022-11-05T21:16:02.457Z,74.43
2022-11-05T21:18:31.054Z,75.47
2022-11-05T21:21:00.518Z,68.97
2022-11-05T21:23:28.036Z,65.10
2022-11-05T21:25:55.289Z,72.80
2022-11-05T21:28:22.048Z,70.20
2022-11-05T21:30:49.228Z,75.82
2022-11-05T21:33:16.905Z,76.18
2022-11-05T21:35:46.493Z,69.75
2022-11-05T21:38:14.581Z,59.28
2022-11-05T21:40:41.916Z,64.22
2022-11-05T21:43:08.716Z,69.82
2022-11-05T21:45:38.842Z,65.53
2022-11-05T21:48:06.444Z,62.60
2022-11-05T21:50:51.955Z,59.10
2022-11-05T21:53:37.301Z,53.63
2022-11-05T21:56:26.587Z,55.67
2022-11-05T21:59:12.084Z,61.88
2022-11-05T22:01:39.275Z,57.30
2022-11-05T22:04:06.129Z,59.38
2022-11-05T22:06:33.635Z,53.75
2022-11-05T22:09:00.319Z,51.72
2022-11-05T22:11:27.417Z,51.47
2022-11-05T22:13:54.115Z,50.13
2022-11-05T22:16:21.060Z,48.08
2022-11-05T22:18:47.796Z,52.13
2022-11-05T22:21:18.429Z,46.30
2022-11-05T22:23:45.181Z,50.28
2022-11-05T22:26:12.201Z,47.90
2022-11-05T22:28:38.883Z,40.60
2022-11-05T22:31:14.618Z,44.35
2022-11-05T22:33:41.613Z,43.22
2022-11-05T22:36:09.213Z,41.22
2022-11-05T22:38:35.950Z,47.67
2022-11-05T22:41:14.525Z,47.65
2022-11-05T22:43:41.294Z,39.78
2022-11-05T22:46:12.614Z,50.42
2022-11-05T22:48:39.603Z,38.88
2022-11-05T22:51:09.311Z,38.60
2022-11-05T22:53:36.130Z,43.63
2022-11-05T22:56:07.280Z,42.33
2022-11-05T22:58:34.148Z,39.03
2022-11-05T23:01:01.295Z,35.45
2022-11-05T23:03:28.818Z,37.08
2022-11-05T23:06:31.787Z,37.45
2022-11-05T23:09:17.537Z,37.40
2022-11-05T23:11:47.058Z,35.35
2022-11-05T23:14:13.768Z,33.42
2022-11-05T23:16:59.602Z,39.08
2022-11-05T23:19:44.892Z,29.65
2022-11-05T23:22:44.134Z,34.15
2022-11-05T23:25:19.373Z,32.50
2022-11-05T23:27:47.687Z,32.60
2022-11-05T23:30:17.911Z,30.92
2022-11-05T23:32:44.997Z,32.83
2022-11-05T23:35:11.854Z,33.55
2022-11-05T23:37:57.235Z,34.72
2022-11-05T23:40:28.578Z,33.80
2022-11-05T23:43:14.169Z,32.55
2022-11-05T23:46:01.919Z,30.58
2022-11-05T23:48:35.143Z,28.40
2022-11-05T23:51:04.126Z,31.77
2022-11-05T23:53:32.580Z,30.65
2022-11-05T23:56:10.006Z,29.55
2022-11-05T23:58:37.341Z,27.60
